Time;durP1;ratioP1;P1;durP2;ratioP2;P2;SDS_P1;SDS_P2;PMS_P1;PMS_P2;Temp;Humidity;BMP_temperature;BMP_pressure;BME280_temperature;BME280_humidity;BME280_pressure;Samples;Min_cycle;Max_cycle;Signal;HPM_P1;HPM_P2
2022/01/13 00:01:50;;;;;;;42.70;24.05;;;-1.60;99.90;;;;;;5030639;28;20428;-54
2022/01/13 00:04:16;;;;;;;42.58;25.42;;;-1.70;99.90;;;;;;5030505;28;20629;-52
2022/01/13 00:06:42;;;;;;;38.58;23.48;;;-1.60;99.90;;;;;;5030676;28;20033;-52
2022/01/13 00:09:08;;;;;;;44.08;25.55;;;-1.50;99.90;;;;;;5030814;28;20051;-51
2022/01/13 00:11:34;;;;;;;40.67;24.90;;;-1.70;99.90;;;;;;5029226;28;20108;-52
2022/01/13 00:16:45;;;;;;;43.05;25.55;;;-1.70;99.90;;;;;;5030621;28;20534;-52
2022/01/13 00:24:32;;;;;;;46.43;26.20;;;-1.50;99.90;;;;;;5021948;28;20038;-52
2022/01/13 00:26:58;;;;;;;43.65;25.55;;;-1.70;99.90;;;;;;5030128;28;20041;-53
2022/01/13 00:29:30;;;;;;;42.63;25.48;;;-1.60;99.90;;;;;;5028976;28;20053;-52
2022/01/13 00:31:56;;;;;;;41.28;25.45;;;-1.60;99.90;;;;;;5030624;28;20021;-55
2022/01/13 00:34:21;;;;;;;42.08;24.98;;;-1.60;99.90;;;;;;5030034;28;20392;-54
2022/01/13 00:36:47;;;;;;;42.20;24.27;;;-1.80;99.90;;;;;;5029994;28;20025;-53
2022/01/13 00:39:14;;;;;;;40.08;23.75;;;-1.70;99.90;;;;;;5030317;28;20030;-53
2022/01/13 00:41:40;;;;;;;45.85;26.33;;;-1.80;99.90;;;;;;5030002;28;20109;-52
2022/01/13 00:44:08;;;;;;;46.67;26.13;;;-1.70;99.90;;;;;;5030795;28;20009;-55
2022/01/13 00:46:46;;;;;;;42.65;25.05;;;-1.80;99.90;;;;;;5034199;28;20021;-52
2022/01/13 00:49:13;;;;;;;40.95;25.02;;;-1.80;99.90;;;;;;5033007;28;20030;-55
2022/01/13 00:51:40;;;;;;;42.90;25.67;;;-1.70;99.90;;;;;;5032120;28;20256;-55
2022/01/13 00:54:07;;;;;;;40.20;25.20;;;-1.80;99.90;;;;;;5034102;28;20025;-56
2022/01/13 00:56:34;;;;;;;43.88;26.30;;;-1.90;99.90;;;;;;5033905;28;20033;-52
2022/01/13 00:59:03;;;;;;;38.95;24.70;;;-2.10;99.90;;;;;;5034278;28;20353;-52
2022/01/13 01:01:29;;;;;;;41.22;24.60;;;-2.10;99.90;;;;;;5033811;28;20029;-53
2022/01/13 01:03:54;;;;;;;44.63;25.42;;;-2.00;99.90;;;;;;5034100;28;20249;-53
2022/01/13 01:06:21;;;;;;;37.85;22.33;;;-2.00;99.90;;;;;;5033970;28;20084;-54
2022/01/13 01:08:47;;;;;;;41.28;23.25;;;-1.90;99.90;;;;;;5034036;28;20064;-54
2022/01/13 01:11:12;;;;;;;41.60;23.55;;;-2.00;99.90;;;;;;5034263;28;20049;-56
2022/01/13 01:13:39;;;;;;;42.00;24.67;;;-2.00;99.90;;;;;;5033750;28;20408;-53
2022/01/13 01:16:09;;;;;;;36.88;23.15;;;-2.00;99.90;;;;;;5033559;28;20047;-52
2022/01/13 01:24:52;;;;;;;36.60;22.63;;;-2.30;99.90;;;;;;5032832;28;20032;-55
2022/01/13 01:26:53;;;;;;;37.72;23.00;;;-2.30;99.90;;;;;;5029173;28;20033;-55
2022/01/13 01:31:50;;;;;;;32.33;20.50;;;-2.20;99.90;;;;;;5032357;28;20111;-55
2022/01/13 01:36:45;;;;;;;35.30;21.83;;;-2.20;99.90;;;;;;5033029;28;20049;-56
2022/01/13 01:39:11;;;;;;;36.90;22.10;;;-2.20;99.90;;;;;;5032649;28;20072;-55
2022/01/13 01:41:43;;;;;;;38.53;24.55;;;-2.10;99.90;;;;;;5032983;28;20030;-54
2022/01/13 01:44:15;;;;;;;37.30;22.27;;;-2.20;99.90;;;;;;5033465;28;20030;-53
2022/01/13 01:46:45;;;;;;;38.25;22.67;;;-2.20;99.90;;;;;;5031837;28;20034;-53
2022/01/13 01:49:24;;;;;;;35.85;22.38;;;-2.20;99.90;;;;;;5032816;28;20028;-51
2022/01/13 01:52:00;;;;;;;35.30;22.95;;;-2.20;99.90;;;;;;5032592;28;20029;-52
2022/01/13 01:54:27;;;;;;;37.83;23.33;;;-2.30;99.90;;;;;;5031172;28;20393;-53
2022/01/13 01:56:53;;;;;;;46.38;26.60;;;-2.30;99.90;;;;;;5030202;28;20030;-51
2022/01/13 01:59:25;;;;;;;40.33;22.17;;;-2.40;99.90;;;;;;5032289;28;20064;-55
2022/01/13 02:01:51;;;;;;;37.50;23.67;;;-2.40;99.90;;;;;;5032483;28;20464;-52
2022/01/13 02:04:19;;;;;;;42.13;24.48;;;-2.40;99.90;;;;;;5032866;28;20032;-54
2022/01/13 02:06:45;;;;;;;41.25;25.63;;;-2.50;99.90;;;;;;5031226;28;20022;-50
2022/01/13 02:09:13;;;;;;;38.47;23.40;;;-2.50;99.90;;;;;;5032497;28;20026;-52
2022/01/13 02:11:44;;;;;;;41.42;23.52;;;-2.50;99.90;;;;;;5031804;28;20053;-51
2022/01/13 02:17:12;;;;;;;41.42;23.10;;;-2.60;99.90;;;;;;5065247;28;20032;-54
2022/01/13 02:19:46;;;;;;;39.92;24.38;;;-2.60;99.90;;;;;;5032585;28;20028;-54
2022/01/13 02:22:12;;;;;;;41.55;26.80;;;-2.70;99.90;;;;;;5030997;28;20032;-56
2022/01/13 02:24:38;;;;;;;59.50;30.33;;;-2.70;99.90;;;;;;5032265;28;20072;-53
2022/01/13 02:27:06;;;;;;;52.78;29.40;;;-2.70;99.90;;;;;;5031288;28;20034;-51
2022/01/13 02:29:32;;;;;;;42.53;25.73;;;-2.70;99.90;;;;;;5032354;28;20072;-55
2022/01/13 02:31:59;;;;;;;49.13;28.52;;;-2.80;99.90;;;;;;5032067;28;20112;-55
2022/01/13 02:34:25;;;;;;;56.55;29.77;;;-2.80;99.90;;;;;;5032087;28;20034;-55
2022/01/13 02:36:54;;;;;;;40.28;25.35;;;-2.80;99.90;;;;;;5032094;28;20328;-54
2022/01/13 02:39:27;;;;;;;49.03;27.70;;;-2.90;99.90;;;;;;5031310;28;20041;-56
2022/01/13 02:41:53;;;;;;;40.75;23.40;;;-2.90;99.90;;;;;;5032257;28;20060;-55
2022/01/13 02:44:22;;;;;;;66.60;31.83;;;-2.90;99.90;;;;;;5032277;28;20026;-56
2022/01/13 02:49:16;;;;;;;41.53;24.63;;;-2.90;99.90;;;;;;5031731;28;20120;-56
2022/01/13 02:51:44;;;;;;;61.90;29.00;;;-2.90;99.90;;;;;;5031677;28;20033;-56
2022/01/13 02:54:10;;;;;;;91.03;38.33;;;-2.90;99.90;;;;;;5032073;28;20466;-56
2022/01/13 02:56:37;;;;;;;95.90;42.70;;;-2.90;99.90;;;;;;5031842;28;20033;-55
2022/01/13 02:59:04;;;;;;;38.65;23.92;;;-2.90;99.90;;;;;;5031639;28;20036;-56
2022/01/13 03:01:29;;;;;;;38.28;22.77;;;-2.90;99.90;;;;;;5031643;28;20064;-53
2022/01/13 03:03:55;;;;;;;39.13;23.45;;;-2.90;99.90;;;;;;5031659;28;20227;-56
2022/01/13 03:06:32;;;;;;;40.05;24.52;;;-2.90;99.90;;;;;;5030498;28;20021;-54
2022/01/13 03:08:58;;;;;;;43.35;21.58;;;-3.00;99.90;;;;;;5031229;28;20419;-53
2022/01/13 03:11:31;;;;;;;39.85;24.48;;;-3.10;99.90;;;;;;5030086;28;20033;-54
2022/01/13 03:13:57;;;;;;;40.33;25.75;;;-3.20;99.90;;;;;;5031366;28;20036;-54
2022/01/13 03:16:23;;;;;;;89.07;36.90;;;-3.20;99.90;;;;;;5031613;28;20109;-54
2022/01/13 03:18:48;;;;;;;38.25;24.85;;;-3.30;99.90;;;;;;5030102;28;20382;-55
2022/01/13 03:21:14;;;;;;;40.80;23.25;;;-3.30;99.90;;;;;;5029690;28;20033;-56
2022/01/13 03:23:40;;;;;;;39.22;25.67;;;-3.40;99.90;;;;;;5030503;28;20025;-56
2022/01/13 03:26:06;;;;;;;41.28;23.45;;;-3.30;99.90;;;;;;5031327;28;20492;-53
2022/01/13 03:28:38;;;;;;;43.17;25.15;;;-3.40;99.90;;;;;;5031002;28;20021;-56
2022/01/13 03:31:06;;;;;;;44.13;27.05;;;-3.40;99.90;;;;;;5031485;28;20117;-53
2022/01/13 03:33:32;;;;;;;39.42;25.10;;;-3.50;99.90;;;;;;5030493;28;20017;-52
2022/01/13 03:35:59;;;;;;;46.92;26.05;;;-3.50;99.90;;;;;;5031107;28;20021;-52
2022/01/13 03:38:25;;;;;;;43.70;26.30;;;-3.60;99.90;;;;;;5031668;28;20024;-53
2022/01/13 03:40:51;;;;;;;43.08;24.38;;;-3.60;99.90;;;;;;5030792;28;20032;-56
2022/01/13 03:43:17;;;;;;;40.95;23.45;;;-3.70;99.90;;;;;;5031192;28;20025;-55
2022/01/13 03:45:44;;;;;;;48.10;26.98;;;-3.70;99.90;;;;;;5030958;28;20500;-54
2022/01/13 03:48:10;;;;;;;53.33;27.75;;;-3.80;99.90;;;;;;5031229;28;20021;-56
2022/01/13 03:50:36;;;;;;;46.63;26.60;;;-3.80;99.90;;;;;;5030509;28;20037;-55
2022/01/13 03:53:02;;;;;;;44.15;26.23;;;-3.80;99.90;;;;;;5030073;28;20037;-55
2022/01/13 03:55:38;;;;;;;40.30;24.08;;;-3.90;99.90;;;;;;5030797;28;20478;-55
2022/01/13 03:58:48;;;;;;;50.45;27.50;;;-4.00;99.90;;;;;;5030588;28;20079;-55
2022/01/13 04:01:32;;;;;;;84.45;38.05;;;-4.00;99.90;;;;;;5028374;28;20155;-52
2022/01/13 04:03:58;;;;;;;58.10;29.40;;;-4.10;99.90;;;;;;5027583;28;20120;-52
2022/01/13 04:06:23;;;;;;;48.78;27.73;;;-4.10;99.90;;;;;;5030285;28;20108;-51
2022/01/13 04:08:51;;;;;;;66.25;33.78;;;-4.10;99.90;;;;;;5030417;28;20026;-54
2022/01/13 04:11:22;;;;;;;58.35;33.22;;;-4.10;99.90;;;;;;5030519;28;20079;-51
2022/01/13 04:16:19;;;;;;;115.03;41.72;;;-4.10;99.90;;;;;;5030334;28;20631;-55
2022/01/13 04:18:46;;;;;;;64.45;30.75;;;-4.10;99.90;;;;;;5029946;28;20022;-53
2022/01/13 04:21:12;;;;;;;56.05;29.27;;;-4.10;99.90;;;;;;5030272;28;20037;-54
2022/01/13 04:23:38;;;;;;;55.55;29.73;;;-4.10;99.90;;;;;;5029526;28;20025;-54
2022/01/13 04:26:07;;;;;;;49.03;26.98;;;-4.20;99.90;;;;;;5029764;28;20062;-55
2022/01/13 04:28:35;;;;;;;62.50;30.52;;;-4.10;99.90;;;;;;5029134;28;20018;-57
2022/01/13 04:31:01;;;;;;;52.45;28.70;;;-4.20;99.90;;;;;;5029818;28;20048;-56
2022/01/13 04:33:28;;;;;;;50.83;27.67;;;-4.10;99.90;;;;;;5029736;28;20029;-55
2022/01/13 04:35:54;;;;;;;49.95;27.08;;;-4.20;99.90;;;;;;5029645;28;20473;-55
2022/01/13 04:38:19;;;;;;;48.90;28.40;;;-4.10;99.90;;;;;;5028764;28;20029;-54
2022/01/13 04:40:48;;;;;;;52.92;30.85;;;-4.00;99.90;;;;;;5029764;28;20029;-53
2022/01/13 04:43:14;;;;;;;52.17;28.20;;;-3.90;99.90;;;;;;5030599;28;20052;-52
2022/01/13 04:45:39;;;;;;;48.58;27.38;;;-3.80;99.90;;;;;;5029440;28;20092;-51
2022/01/13 04:48:05;;;;;;;47.25;28.45;;;-3.70;99.90;;;;;;5030249;28;20113;-55
2022/01/13 04:50:31;;;;;;;44.60;27.08;;;-3.70;99.90;;;;;;5030100;28;20032;-53
2022/01/13 04:52:56;;;;;;;45.47;26.77;;;-3.60;99.90;;;;;;5030249;28;20083;-55
2022/01/13 04:55:25;;;;;;;48.22;26.50;;;-3.60;99.90;;;;;;5028949;28;20029;-55
2022/01/13 04:57:52;;;;;;;44.97;25.42;;;-3.50;99.90;;;;;;5028381;28;20485;-54
2022/01/13 05:00:19;;;;;;;50.65;26.33;;;-3.50;99.90;;;;;;5030119;28;20025;-54
2022/01/13 05:02:45;;;;;;;43.08;25.13;;;-3.50;99.90;;;;;;5029974;28;20056;-53
2022/01/13 05:05:11;;;;;;;50.40;26.38;;;-3.40;99.90;;;;;;5030307;28;20057;-52
2022/01/13 05:07:37;;;;;;;50.55;27.45;;;-3.50;99.90;;;;;;5029734;28;20104;-56
2022/01/13 05:10:03;;;;;;;50.40;26.10;;;-3.50;99.90;;;;;;5029951;28;20059;-56
2022/01/13 05:12:36;;;;;;;53.00;28.70;;;-3.50;99.90;;;;;;5029752;28;20547;-56
2022/01/13 05:15:05;;;;;;;71.20;33.90;;;-3.60;99.90;;;;;;5029849;28;20500;-55
2022/01/13 05:20:21;;;;;;;50.53;26.98;;;-3.60;99.90;;;;;;5030045;28;20392;-52
2022/01/13 05:22:48;;;;;;;46.70;27.77;;;-3.70;99.90;;;;;;5029536;28;20117;-52
2022/01/13 05:25:15;;;;;;;62.65;34.45;;;-3.70;99.90;;;;;;5029995;28;20088;-54
2022/01/13 05:27:41;;;;;;;52.72;29.35;;;-3.70;99.90;;;;;;5029789;28;20052;-54
2022/01/13 05:30:08;;;;;;;77.28;41.05;;;-3.80;99.90;;;;;;5029262;28;20033;-54
2022/01/13 05:32:33;;;;;;;82.47;40.92;;;-3.90;99.90;;;;;;5033362;28;20022;-55
2022/01/13 05:35:01;;;;;;;53.55;28.67;;;-3.90;99.90;;;;;;5032230;28;20022;-54
2022/01/13 05:37:26;;;;;;;46.20;24.70;;;-4.00;99.90;;;;;;5033374;28;20502;-54
2022/01/13 05:39:52;;;;;;;52.38;27.92;;;-4.00;99.90;;;;;;5033441;28;20061;-56
2022/01/13 05:42:18;;;;;;;60.97;31.05;;;-4.10;99.90;;;;;;5033242;28;20025;-56
2022/01/13 05:44:43;;;;;;;67.28;36.80;;;-4.10;99.90;;;;;;5033221;28;20028;-56
2022/01/13 05:47:12;;;;;;;64.45;33.78;;;-4.10;99.90;;;;;;5032003;28;20506;-57
2022/01/13 05:49:40;;;;;;;62.40;34.30;;;-4.10;99.90;;;;;;5031865;28;20021;-57
2022/01/13 05:52:11;;;;;;;54.25;28.90;;;-4.10;99.90;;;;;;5031781;28;20025;-57
2022/01/13 05:54:37;;;;;;;48.05;27.05;;;-4.10;99.90;;;;;;5031597;28;20065;-54
2022/01/13 05:57:04;;;;;;;48.72;26.50;;;-4.10;99.90;;;;;;5032870;28;20116;-53
2022/01/13 05:59:30;;;;;;;50.58;28.65;;;-4.20;99.90;;;;;;5032887;28;20075;-53
2022/01/13 06:01:55;;;;;;;51.38;29.08;;;-4.10;99.90;;;;;;5032833;28;20021;-54
2022/01/13 06:04:21;;;;;;;51.10;27.67;;;-4.20;99.90;;;;;;5033087;28;20026;-56
2022/01/13 06:06:47;;;;;;;52.80;31.50;;;-4.20;99.90;;;;;;5031650;28;20033;-55
2022/01/13 06:09:13;;;;;;;54.75;27.55;;;-4.30;99.90;;;;;;5032855;28;20036;-53
2022/01/13 06:11:42;;;;;;;51.72;31.38;;;-4.30;99.90;;;;;;5032821;28;20155;-58
2022/01/13 06:14:08;;;;;;;50.47;27.02;;;-4.30;99.90;;;;;;5032600;28;20050;-58
2022/01/13 06:16:34;;;;;;;48.50;28.83;;;-4.30;99.90;;;;;;5032324;28;20393;-56
2022/01/13 06:19:00;;;;;;;52.70;28.48;;;-4.30;99.90;;;;;;5032587;28;20047;-55
2022/01/13 06:21:26;;;;;;;50.70;26.83;;;-4.30;99.90;;;;;;5032739;28;20056;-54
2022/01/13 06:23:51;;;;;;;51.85;28.70;;;-4.30;99.90;;;;;;5032500;28;20022;-54
2022/01/13 06:26:18;;;;;;;54.30;30.90;;;-4.30;99.90;;;;;;5032685;28;20033;-52
2022/01/13 06:28:44;;;;;;;56.40;33.47;;;-4.30;99.90;;;;;;5032390;28;20480;-56
2022/01/13 06:31:09;;;;;;;56.90;28.60;;;-4.30;99.90;;;;;;5031764;28;20036;-57
2022/01/13 06:33:35;;;;;;;55.28;29.42;;;-4.40;99.90;;;;;;5031638;28;20056;-55
2022/01/13 06:36:05;;;;;;;52.90;28.10;;;-4.30;99.90;;;;;;5032363;28;20017;-54
2022/01/13 06:38:31;;;;;;;48.72;26.17;;;-4.30;99.90;;;;;;5031914;28;20481;-57
2022/01/13 06:40:57;;;;;;;52.55;28.70;;;-4.30;99.90;;;;;;5030318;28;20100;-57
2022/01/13 06:43:23;;;;;;;55.72;29.80;;;-4.40;99.90;;;;;;5030941;28;20097;-57
2022/01/13 06:45:49;;;;;;;64.20;31.17;;;-4.30;99.90;;;;;;5031646;28;20453;-53
2022/01/13 06:48:15;;;;;;;56.70;30.02;;;-4.30;99.90;;;;;;5032066;28;20079;-57
2022/01/13 06:50:41;;;;;;;67.45;32.55;;;-4.30;99.90;;;;;;5031731;28;20028;-57
2022/01/13 06:53:06;;;;;;;60.72;30.27;;;-4.20;99.90;;;;;;5032547;28;20021;-57
2022/01/13 06:55:32;;;;;;;52.00;28.70;;;-4.20;99.90;;;;;;5031928;28;20021;-55
2022/01/13 06:57:58;;;;;;;55.38;29.73;;;-4.20;99.90;;;;;;5031926;28;20163;-55
2022/01/13 07:00:25;;;;;;;61.50;36.05;;;-4.30;99.90;;;;;;5031953;28;20021;-58
2022/01/13 07:02:53;;;;;;;55.35;31.38;;;-4.30;99.90;;;;;;5031624;28;20029;-54
2022/01/13 07:05:18;;;;;;;54.17;30.40;;;-4.30;99.90;;;;;;5031725;28;20099;-57
2022/01/13 07:07:45;;;;;;;50.08;29.38;;;-4.30;99.90;;;;;;5030258;28;20485;-57
2022/01/13 07:10:12;;;;;;;56.67;31.88;;;-4.30;99.90;;;;;;5031496;28;20045;-56
2022/01/13 07:12:39;;;;;;;63.15;35.05;;;-4.30;99.90;;;;;;5029580;28;20025;-57
2022/01/13 07:15:06;;;;;;;62.78;32.92;;;-4.30;99.90;;;;;;5029434;28;20050;-57
2022/01/13 07:17:32;;;;;;;60.58;34.15;;;-4.20;99.90;;;;;;5031014;28;20029;-55
2022/01/13 07:19:58;;;;;;;58.47;34.15;;;-4.20;99.90;;;;;;5031549;28;20111;-57
2022/01/13 07:22:23;;;;;;;56.97;31.98;;;-4.20;99.90;;;;;;5031486;28;20084;-54
2022/01/13 07:24:49;;;;;;;53.63;29.00;;;-4.30;99.90;;;;;;5032370;28;20021;-58
2022/01/13 07:27:15;;;;;;;53.88;30.45;;;-4.30;99.90;;;;;;5032435;28;20030;-58
2022/01/13 07:29:42;;;;;;;56.10;31.00;;;-4.30;99.90;;;;;;5031419;28;20026;-58
2022/01/13 07:32:12;;;;;;;58.05;31.40;;;-4.20;99.90;;;;;;5032255;28;20022;-58
2022/01/13 07:34:38;;;;;;;52.17;29.00;;;-4.30;99.90;;;;;;5032216;28;20025;-57
2022/01/13 07:37:04;;;;;;;63.30;32.25;;;-4.20;99.90;;;;;;5032275;28;20108;-57
2022/01/13 07:39:31;;;;;;;52.70;30.50;;;-4.10;99.90;;;;;;5030379;28;20429;-59
2022/01/13 07:41:56;;;;;;;51.72;30.10;;;-4.10;99.90;;;;;;5031915;28;20020;-58
2022/01/13 07:44:22;;;;;;;63.10;34.38;;;-4.00;99.90;;;;;;5031780;28;20101;-57
2022/01/13 07:46:48;;;;;;;53.35;31.42;;;-4.00;99.90;;;;;;5032117;28;20029;-57
2022/01/13 07:49:14;;;;;;;56.78;31.10;;;-3.90;99.90;;;;;;5032260;28;20025;-59
2022/01/13 07:51:40;;;;;;;50.88;29.38;;;-3.90;99.90;;;;;;5032195;28;20030;-59
2022/01/13 07:54:06;;;;;;;51.80;28.92;;;-3.90;99.90;;;;;;5031283;28;20502;-57
2022/01/13 07:56:31;;;;;;;59.40;29.95;;;-3.80;99.90;;;;;;5031773;28;20030;-56
2022/01/13 07:58:57;;;;;;;50.33;28.60;;;-3.70;99.90;;;;;;5032030;28;20034;-53
2022/01/13 08:01:23;;;;;;;60.72;33.00;;;-3.60;99.90;;;;;;5031977;28;20057;-57
2022/01/13 08:03:49;;;;;;;58.85;30.98;;;-3.60;99.90;;;;;;5031984;28;20531;-52
2022/01/13 08:06:15;;;;;;;54.05;31.50;;;-3.40;99.90;;;;;;5032004;28;20645;-53
2022/01/13 08:08:41;;;;;;;53.05;29.05;;;-3.40;99.90;;;;;;5031814;28;20017;-58
2022/01/13 08:11:08;;;;;;;50.25;27.77;;;-3.30;99.90;;;;;;5031734;28;20036;-57
2022/01/13 08:13:35;;;;;;;49.85;27.63;;;-3.20;99.90;;;;;;5031680;28;20029;-57
2022/01/13 08:16:06;;;;;;;53.80;29.73;;;-3.20;99.90;;;;;;5031680;28;20094;-55
2022/01/13 08:21:16;;;;;;;50.97;28.42;;;-3.00;99.90;;;;;;5031799;28;20087;-59
2022/01/13 08:23:41;;;;;;;41.50;25.98;;;-2.90;99.90;;;;;;5031610;28;20017;-55
2022/01/13 08:26:07;;;;;;;47.05;25.77;;;-2.80;99.90;;;;;;5030436;28;20021;-56
2022/01/13 08:28:33;;;;;;;50.35;29.45;;;-2.80;99.90;;;;;;5031512;28;20033;-57
2022/01/13 08:30:59;;;;;;;48.60;27.38;;;-2.70;99.90;;;;;;5030394;28;20028;-57
2022/01/13 08:33:26;;;;;;;46.97;27.90;;;-2.60;99.90;;;;;;5031643;28;20030;-55
2022/01/13 08:35:53;;;;;;;50.95;28.35;;;-2.60;99.90;;;;;;5031392;28;20092;-57
2022/01/13 08:38:20;;;;;;;47.75;26.77;;;-2.50;99.90;;;;;;5031501;28;20104;-55
2022/01/13 08:40:53;;;;;;;51.80;28.27;;;-2.40;99.90;;;;;;5031303;28;20033;-59
2022/01/13 08:43:19;;;;;;;;;;;-2.40;99.90;;;;;;5032073;28;20071;-59
2022/01/13 08:45:45;;;;;;;48.50;27.73;;;-2.30;99.90;;;;;;5031296;28;19995;-58
2022/01/13 08:48:11;;;;;;;48.42;28.52;;;-2.20;99.90;;;;;;5031492;28;20029;-56
2022/01/13 08:50:37;;;;;;;46.50;27.08;;;-2.20;99.90;;;;;;5031324;28;20052;-56
2022/01/13 08:53:03;;;;;;;47.20;27.45;;;-2.10;99.90;;;;;;5031472;28;20025;-58
2022/01/13 08:55:29;;;;;;;47.58;27.17;;;-2.10;99.90;;;;;;5031192;28;20036;-58
2022/01/13 08:57:54;;;;;;;47.17;26.55;;;-2.00;99.90;;;;;;5031249;28;20673;-54
2022/01/13 09:00:20;;;;;;;44.58;25.42;;;-2.00;99.90;;;;;;5031590;28;20064;-56
2022/01/13 09:02:46;;;;;;;48.40;25.00;;;-2.00;99.90;;;;;;5031230;28;20021;-57
2022/01/13 09:05:17;;;;;;;42.08;25.88;;;-1.90;99.90;;;;;;5032108;28;20621;-58
2022/01/13 09:07:42;;;;;;;42.33;23.67;;;-1.80;99.90;;;;;;5035195;28;20026;-59
2022/01/13 09:10:10;;;;;;;45.85;25.05;;;-1.80;99.90;;;;;;5035232;28;20105;-60
2022/01/13 09:12:36;;;;;;;39.22;22.45;;;-1.70;99.90;;;;;;5033727;28;20434;-57
2022/01/13 09:15:14;;;;;;;40.85;24.38;;;-1.60;99.90;;;;;;5035066;28;20107;-57
2022/01/13 09:17:42;;;;;;;35.05;21.25;;;-1.50;99.90;;;;;;5034861;28;20029;-57
2022/01/13 09:20:08;;;;;;;35.80;21.55;;;-1.50;99.90;;;;;;5035149;28;20026;-57
2022/01/13 09:22:34;;;;;;;35.53;19.75;;;-1.50;99.90;;;;;;5034806;28;20022;-58
2022/01/13 09:25:00;;;;;;;36.75;21.85;;;-1.40;99.90;;;;;;5034660;28;20041;-57
2022/01/13 09:27:25;;;;;;;36.00;22.05;;;-1.20;99.90;;;;;;5034486;28;20037;-57
2022/01/13 09:29:51;;;;;;;43.30;24.45;;;-1.20;99.90;;;;;;5034368;28;20052;-58
2022/01/13 09:32:17;;;;;;;35.08;20.98;;;-1.10;99.90;;;;;;5034839;28;20065;-58
2022/01/13 09:34:43;;;;;;;38.03;21.50;;;-1.00;99.90;;;;;;5034722;28;20025;-57
2022/01/13 09:37:09;;;;;;;66.03;32.67;;;-0.90;99.90;;;;;;5034442;28;20021;-60
2022/01/13 09:39:35;;;;;;;35.13;21.38;;;-0.70;99.90;;;;;;5034510;28;20116;-59
2022/01/13 09:42:02;;;;;;;29.08;18.35;;;0.00;99.90;;;;;;5034368;28;20342;-58
2022/01/13 09:44:28;;;;;;;35.25;20.25;;;1.80;99.90;;;;;;5034525;28;20469;-56
2022/01/13 09:46:54;;;;;;;30.50;18.20;;;3.70;96.90;;;;;;5033252;28;20152;-54
2022/01/13 09:49:20;;;;;;;24.15;16.30;;;5.10;92.60;;;;;;5034560;28;20022;-58
2022/01/13 09:51:46;;;;;;;26.30;16.92;;;6.00;85.70;;;;;;5034266;28;20117;-56
2022/01/13 09:54:13;;;;;;;24.77;16.58;;;6.60;80.60;;;;;;5034461;28;20053;-58
2022/01/13 09:56:38;;;;;;;24.42;16.92;;;7.40;75.70;;;;;;5034231;28;20052;-58
2022/01/13 09:59:06;;;;;;;24.90;16.27;;;7.90;71.00;;;;;;5034420;28;20025;-57
2022/01/13 10:01:32;;;;;;;24.27;16.60;;;8.30;68.20;;;;;;5034217;28;20424;-54
2022/01/13 10:03:57;;;;;;;23.08;15.82;;;8.80;64.10;;;;;;5034199;28;20061;-57
2022/01/13 10:06:23;;;;;;;29.13;16.45;;;9.30;60.90;;;;;;5034264;28;20017;-55
2022/01/13 10:08:57;;;;;;;22.08;14.55;;;9.60;58.60;;;;;;5033927;28;20489;-60
2022/01/13 10:11:25;;;;;;;20.50;15.20;;;10.40;56.30;;;;;;5033950;28;20372;-59
2022/01/13 10:17:13;;;;;;;20.13;15.00;;;10.70;51.60;;;;;;5031787;28;20025;-60
2022/01/13 10:19:42;;;;;;;23.23;16.17;;;9.80;52.90;;;;;;5033849;28;20584;-60
2022/01/13 10:22:15;;;;;;;34.40;18.10;;;9.70;53.40;;;;;;5033901;28;20083;-60
2022/01/13 10:24:45;;;;;;;22.45;16.52;;;9.20;56.20;;;;;;5033716;28;20024;-59
2022/01/13 10:27:18;;;;;;;24.10;18.83;;;9.50;54.70;;;;;;5033636;28;20108;-58
2022/01/13 10:29:52;;;;;;;23.08;16.50;;;8.50;55.80;;;;;;5033777;28;20009;-59
2022/01/13 10:32:19;;;;;;;21.35;15.48;;;7.70;59.60;;;;;;5033738;28;20021;-59
2022/01/13 10:34:48;;;;;;;21.92;15.32;;;8.00;59.50;;;;;;5033338;28;20046;-58
2022/01/13 10:37:19;;;;;;;20.48;15.75;;;8.10;59.30;;;;;;5032025;28;20025;-59
2022/01/13 10:39:53;;;;;;;20.38;14.43;;;8.50;58.30;;;;;;5030536;28;20105;-58
2022/01/13 10:45:03;;;;;;;20.15;14.10;;;8.80;57.40;;;;;;5021650;28;20132;-58
2022/01/13 10:47:30;;;;;;;24.50;14.18;;;9.20;56.10;;;;;;5022624;28;20362;-58
2022/01/13 10:50:13;;;;;;;22.63;16.35;;;9.10;56.10;;;;;;5022651;28;20147;-58
2022/01/13 10:52:39;;;;;;;20.45;14.40;;;9.60;55.70;;;;;;5021304;28;20112;-57
2022/01/13 10:55:12;;;;;;;20.00;13.77;;;9.50;56.10;;;;;;5022424;28;20030;-56
2022/01/13 10:57:41;;;;;;;20.85;14.38;;;10.60;53.30;;;;;;5020279;28;20041;-58
2022/01/13 11:00:28;;;;;;;26.83;15.35;;;11.50;50.70;;;;;;5004487;28;20449;-58
2022/01/13 11:03:10;;;;;;;17.92;11.98;;;11.00;49.70;;;;;;5022084;28;20159;-56
2022/01/13 11:05:40;;;;;;;19.77;11.63;;;11.60;49.40;;;;;;5020596;28;20537;-56
2022/01/13 11:08:07;;;;;;;19.10;12.93;;;11.10;48.20;;;;;;5020012;28;20060;-57
2022/01/13 11:10:35;;;;;;;20.27;13.10;;;11.10;49.70;;;;;;5011507;28;20065;-56
2022/01/13 11:13:03;;;;;;;18.58;13.40;;;11.10;49.90;;;;;;5008818;28;20496;-57
2022/01/13 11:15:29;;;;;;;22.48;14.77;;;10.20;51.60;;;;;;5021219;28;20053;-56
2022/01/13 11:17:57;;;;;;;19.67;13.75;;;8.90;54.90;;;;;;5021966;28;20052;-56
2022/01/13 11:20:24;;;;;;;24.23;15.07;;;7.60;57.30;;;;;;5022188;28;20052;-56
2022/01/13 11:22:55;;;;;;;20.25;14.63;;;6.00;61.00;;;;;;5021169;28;20033;-56
2022/01/13 11:25:23;;;;;;;20.50;13.90;;;6.20;64.20;;;;;;5022193;28;20029;-54
2022/01/13 11:27:50;;;;;;;19.35;13.70;;;6.30;62.90;;;;;;5010134;28;20030;-57
2022/01/13 11:30:19;;;;;;;19.65;13.50;;;6.30;63.50;;;;;;5021383;28;20052;-58
2022/01/13 11:32:46;;;;;;;44.55;21.15;;;6.30;64.00;;;;;;5021199;28;20049;-56
2022/01/13 11:35:14;;;;;;;20.10;12.50;;;6.30;63.30;;;;;;5022054;28;20037;-56
2022/01/13 11:37:41;;;;;;;26.25;18.08;;;6.10;65.60;;;;;;5021064;28;20402;-57
2022/01/13 11:40:27;;;;;;;27.65;16.80;;;5.00;65.00;;;;;;5021543;28;20029;-57
2022/01/13 11:42:58;;;;;;;18.13;11.70;;;4.70;67.40;;;;;;5020917;28;20021;-57
2022/01/13 11:45:24;;;;;;;20.88;13.38;;;5.40;67.90;;;;;;5020458;28;20072;-56
2022/01/13 11:48:09;;;;;;;18.00;11.20;;;5.30;66.30;;;;;;5020439;28;20053;-56
2022/01/13 11:50:43;;;;;;;14.85;10.45;;;5.80;66.60;;;;;;5020868;28;20029;-56
2022/01/13 11:53:29;;;;;;;19.58;14.55;;;6.50;65.90;;;;;;5021716;28;20025;-57
2022/01/13 11:56:06;;;;;;;22.55;13.27;;;6.60;64.00;;;;;;5021017;28;20053;-58
2022/01/13 11:58:41;;;;;;;21.13;11.05;;;6.70;63.10;;;;;;5021203;28;20043;-56
2022/01/13 12:01:30;;;;;;;24.38;14.73;;;6.70;63.60;;;;;;5021111;28;20029;-57
2022/01/13 12:04:03;;;;;;;16.95;12.13;;;7.80;61.80;;;;;;5019414;28;20026;-57
2022/01/13 12:06:51;;;;;;;34.47;19.77;;;8.00;61.10;;;;;;5021503;28;20025;-58
2022/01/13 12:09:22;;;;;;;26.20;15.43;;;7.30;61.60;;;;;;5003077;28;20038;-58
2022/01/13 12:11:55;;;;;;;21.90;13.00;;;6.60;63.80;;;;;;5020721;28;20033;-57
2022/01/13 12:14:27;;;;;;;18.17;13.07;;;6.50;64.30;;;;;;5020697;28;20133;-57
2022/01/13 12:16:53;;;;;;;24.00;16.02;;;6.10;66.30;;;;;;5021081;28;20481;-57
2022/01/13 12:19:39;;;;;;;19.85;14.57;;;6.50;66.20;;;;;;5019887;28;20037;-57
2022/01/13 12:22:12;;;;;;;18.52;12.43;;;6.10;66.40;;;;;;5019124;28;20769;-58
2022/01/13 12:24:55;;;;;;;16.23;11.93;;;5.80;67.50;;;;;;5020223;28;20435;-56
2022/01/13 12:27:26;;;;;;;16.35;11.80;;;6.00;69.00;;;;;;5003661;28;20034;-58
2022/01/13 12:30:25;;;;;;;22.80;11.82;;;5.40;70.20;;;;;;5020050;28;20033;-58
2022/01/13 12:33:01;;;;;;;18.90;11.75;;;5.50;72.00;;;;;;5020706;28;20033;-57
2022/01/13 12:35:42;;;;;;;23.35;13.25;;;5.40;70.70;;;;;;5020174;28;20167;-56
2022/01/13 12:38:16;;;;;;;18.95;13.07;;;5.00;74.10;;;;;;5020787;28;20057;-57
2022/01/13 12:40:54;;;;;;;24.30;14.05;;;5.10;74.30;;;;;;5005309;28;20034;-58
2022/01/13 12:46:16;;;;;;;18.08;13.63;;;4.70;78.70;;;;;;5020784;28;20032;-57
2022/01/13 12:48:44;;;;;;;20.55;12.80;;;4.60;80.30;;;;;;5020462;28;20060;-57
2022/01/13 12:51:15;;;;;;;26.30;15.02;;;4.70;82.40;;;;;;5019301;28;20500;-58
2022/01/13 12:53:41;;;;;;;27.63;15.15;;;4.70;81.40;;;;;;5020741;28;20044;-57
2022/01/13 12:56:13;;;;;;;22.40;14.80;;;4.70;82.40;;;;;;5019898;28;20071;-57
2022/01/13 12:58:48;;;;;;;27.85;15.70;;;4.80;83.90;;;;;;5020334;28;20499;-57
2022/01/13 13:01:18;;;;;;;35.45;16.52;;;4.80;85.90;;;;;;5020016;28;20465;-56
2022/01/13 13:04:15;;;;;;;26.25;16.77;;;4.80;89.10;;;;;;5019430;28;20116;-56
2022/01/13 13:06:48;;;;;;;27.65;15.05;;;4.70;91.00;;;;;;5019628;28;20034;-57
2022/01/13 13:09:19;;;;;;;21.50;15.10;;;4.60;91.60;;;;;;5029993;28;20112;-55
2022/01/13 13:11:48;;;;;;;25.05;15.90;;;4.60;92.70;;;;;;5029930;28;20033;-57
2022/01/13 13:14:22;;;;;;;25.15;15.10;;;4.70;92.20;;;;;;5030878;28;20045;-57
2022/01/13 13:16:51;;;;;;;22.35;15.73;;;4.60;92.30;;;;;;5030888;28;20109;-57
2022/01/13 13:19:20;;;;;;;34.42;16.00;;;4.50;92.50;;;;;;5030936;28;20049;-57